Time;durP1;ratioP1;P1;durP2;ratioP2;P2;SDS_P1;SDS_P2;PMS_P1;PMS_P2;Temp;Humidity;BMP_temperature;BMP_pressure;BME280_temperature;BME280_humidity;BME280_pressure;Samples;Min_cycle;Max_cycle;Signal;HPM_P1;HPM_P2
2022/10/01 00:00:56;;;;;;;8.48;4.90;;;18.60;72.40;;;;;;5064462;28;20078;-69
2022/10/01 00:03:25;;;;;;;8.18;5.28;;;18.60;72.50;;;;;;5057160;28;20040;-69
2022/10/01 00:06:00;;;;;;;9.93;6.25;;;18.60;72.60;;;;;;5059119;28;20029;-72
2022/10/01 00:08:28;;;;;;;9.43;6.20;;;18.60;72.60;;;;;;5058584;28;20024;-70
2022/10/01 02:22:19;;;;;;;14.55;7.78;;;17.70;78.10;;;;;;5118838;27;20503;-69
2022/10/01 02:24:51;;;;;;;12.68;7.03;;;17.90;78.50;;;;;;5114807;28;20239;-69
2022/10/01 02:27:29;;;;;;;17.92;8.13;;;18.00;78.30;;;;;;5116400;27;20019;-68
2022/10/01 02:29:58;;;;;;;17.30;8.20;;;18.00;78.10;;;;;;5117030;27;20063;-67
2022/10/01 02:32:28;;;;;;;27.23;9.55;;;18.00;78.00;;;;;;5117397;27;20031;-68
2022/10/01 02:34:55;;;;;;;15.98;7.18;;;18.10;78.00;;;;;;5118713;28;20012;-68
2022/10/01 02:37:24;;;;;;;11.15;6.65;;;18.10;77.90;;;;;;5116308;27;20012;-68
2022/10/01 02:39:53;;;;;;;12.38;6.68;;;18.10;77.90;;;;;;5119003;27;20393;-68
2022/10/01 02:42:22;;;;;;;19.52;7.70;;;18.10;77.90;;;;;;5121403;27;20026;-68
2022/10/01 02:44:53;;;;;;;25.02;7.93;;;18.10;77.90;;;;;;5112942;28;20121;-68
2022/10/01 02:47:34;;;;;;;37.72;15.00;;;18.10;78.10;;;;;;5121130;27;20023;-68
2022/10/01 02:50:05;;;;;;;40.25;18.98;;;18.20;79.00;;;;;;5122234;28;20421;-70
2022/10/01 02:52:47;;;;;;;26.75;14.60;;;18.20;79.50;;;;;;5114443;28;20894;-69
2022/10/01 02:55:39;;;;;;;19.70;10.43;;;18.20;80.50;;;;;;5121658;27;20024;-68
2022/10/01 02:58:07;;;;;;;11.98;8.00;;;18.20;79.70;;;;;;5110127;27;20050;-69
2022/10/01 03:00:34;;;;;;;14.40;6.55;;;18.20;79.20;;;;;;5121256;27;20404;-68
2022/10/01 03:03:01;;;;;;;11.68;5.55;;;18.20;78.80;;;;;;5122082;27;20080;-68
2022/10/01 03:05:27;;;;;;;13.52;6.38;;;18.10;78.50;;;;;;5123061;27;20039;-69
2022/10/01 03:07:53;;;;;;;12.93;5.35;;;18.10;78.20;;;;;;5122577;27;20024;-70
2022/10/01 03:10:20;;;;;;;13.45;6.03;;;18.10;78.00;;;;;;5122713;27;20429;-69
2022/10/01 03:12:48;;;;;;;31.35;15.40;;;18.10;78.00;;;;;;5115961;27;20030;-70
2022/10/01 03:15:20;;;;;;;30.65;17.05;;;18.10;79.30;;;;;;5120677;27;20057;-68
2022/10/01 03:17:53;;;;;;;28.98;19.17;;;18.10;79.50;;;;;;5115402;27;20115;-68
2022/10/01 03:20:20;;;;;;;37.85;21.40;;;18.10;79.10;;;;;;5122723;27;20039;-69
2022/10/01 03:22:47;;;;;;;33.85;19.13;;;18.10;78.80;;;;;;5107504;27;20020;-69
2022/10/01 03:25:14;;;;;;;23.48;11.57;;;18.10;78.90;;;;;;5108727;28;20054;-70
2022/10/01 03:27:41;;;;;;;17.60;9.00;;;18.10;79.30;;;;;;5108000;28;20007;-69
2022/10/01 03:30:09;;;;;;;13.50;8.25;;;18.10;78.30;;;;;;5104275;28;20029;-70
2022/10/01 03:32:36;;;;;;;17.95;7.65;;;18.10;78.20;;;;;;5105542;28;20027;-70
2022/10/01 03:35:03;;;;;;;10.90;7.47;;;18.10;77.90;;;;;;5106014;28;20024;-69
2022/10/01 03:37:29;;;;;;;11.68;7.57;;;18.10;77.80;;;;;;5106851;28;20406;-70
2022/10/01 03:39:55;;;;;;;20.17;8.95;;;18.10;77.60;;;;;;5106055;28;20447;-69
2022/10/01 03:42:22;;;;;;;15.07;7.20;;;18.10;77.50;;;;;;5103709;28;20030;-69
2022/10/01 03:44:48;;;;;;;15.48;7.75;;;18.00;77.40;;;;;;5104850;28;20016;-67
2022/10/01 03:47:15;;;;;;;17.73;8.23;;;18.10;77.40;;;;;;5108172;28;20051;-69
2022/10/01 03:49:41;;;;;;;20.63;12.02;;;18.10;77.40;;;;;;5107799;28;20539;-68
2022/10/01 03:52:08;;;;;;;44.38;17.08;;;18.00;77.90;;;;;;5109168;28;20031;-68
2022/10/01 03:54:34;;;;;;;20.63;12.82;;;18.00;78.50;;;;;;5103136;28;20066;-68
2022/10/01 03:57:01;;;;;;;30.15;11.02;;;18.00;78.80;;;;;;5108067;28;20027;-67
2022/10/01 03:59:28;;;;;;;21.58;10.02;;;18.00;78.80;;;;;;5107067;28;20077;-68
2022/10/01 04:01:54;;;;;;;15.90;8.25;;;18.00;78.70;;;;;;5100172;28;20484;-68
2022/10/01 04:04:21;;;;;;;14.50;7.35;;;18.00;78.50;;;;;;5107486;28;20016;-68
2022/10/01 04:06:47;;;;;;;13.68;8.25;;;17.90;78.10;;;;;;5102912;28;20473;-67
2022/10/01 04:09:14;;;;;;;10.95;6.78;;;17.90;77.90;;;;;;5109146;28;20023;-67
2022/10/01 04:11:40;;;;;;;12.77;7.75;;;17.90;77.80;;;;;;5102516;28;20526;-69
2022/10/01 04:14:07;;;;;;;19.02;8.15;;;17.90;77.70;;;;;;5107967;28;20114;-68
2022/10/01 04:16:35;;;;;;;18.58;7.30;;;17.90;77.60;;;;;;5104651;28;20042;-68
2022/10/01 04:19:02;;;;;;;18.98;7.60;;;17.90;77.50;;;;;;5106797;28;20039;-68
2022/10/01 04:21:29;;;;;;;38.15;26.42;;;17.90;77.70;;;;;;5102351;28;20553;-70
2022/10/01 04:23:55;;;;;;;42.00;26.10;;;17.90;78.50;;;;;;5108323;28;20592;-67
2022/10/01 04:26:21;;;;;;;24.73;15.23;;;17.90;78.30;;;;;;5105777;28;20562;-67
2022/10/01 04:28:48;;;;;;;23.65;13.50;;;17.90;78.50;;;;;;5107245;28;20120;-68
2022/10/01 04:31:24;;;;;;;22.85;10.13;;;17.90;78.40;;;;;;5103738;28;20031;-70
2022/10/01 04:33:51;;;;;;;15.65;8.65;;;17.80;77.90;;;;;;5105021;28;20111;-68
2022/10/01 04:36:18;;;;;;;12.75;6.70;;;17.80;77.60;;;;;;5107260;28;20102;-67
2022/10/01 04:38:45;;;;;;;41.63;26.67;;;17.80;77.40;;;;;;5101631;28;20486;-68
2022/10/01 04:41:12;;;;;;;37.88;28.35;;;17.80;77.60;;;;;;5100701;27;20018;-70
2022/10/01 04:43:39;;;;;;;35.60;26.05;;;17.80;77.80;;;;;;5097523;28;20159;-67
2022/10/01 04:46:05;;;;;;;29.05;16.10;;;17.70;77.60;;;;;;5095344;28;20031;-68
2022/10/01 04:48:32;;;;;;;18.65;11.15;;;17.80;77.50;;;;;;5093452;28;20077;-67
2022/10/01 04:50:58;;;;;;;13.30;8.45;;;17.70;77.30;;;;;;5098030;28;20028;-67
2022/10/01 04:53:25;;;;;;;16.15;6.70;;;17.70;77.40;;;;;;5098526;28;20922;-68
2022/10/01 04:55:51;;;;;;;15.98;7.28;;;17.70;77.30;;;;;;5098300;28;20072;-68
2022/10/01 04:58:18;;;;;;;12.85;6.50;;;17.70;77.30;;;;;;5099103;28;20031;-70
2022/10/01 05:00:45;;;;;;;17.10;7.50;;;17.70;77.50;;;;;;5097530;28;20069;-68
2022/10/01 05:03:11;;;;;;;18.88;8.18;;;17.70;77.50;;;;;;5097084;28;20019;-69
2022/10/01 05:05:39;;;;;;;22.10;14.50;;;17.70;77.70;;;;;;5101239;28;20503;-67
2022/10/01 05:08:06;;;;;;;28.23;18.60;;;17.70;77.90;;;;;;5096692;28;20079;-67
2022/10/01 05:10:32;;;;;;;24.77;13.95;;;17.70;78.00;;;;;;5104147;28;20028;-68
2022/10/01 05:13:01;;;;;;;23.67;9.95;;;17.70;78.00;;;;;;5102505;28;20019;-67
2022/10/01 05:15:28;;;;;;;13.93;7.25;;;17.70;77.90;;;;;;5096086;28;20020;-68
2022/10/01 05:17:55;;;;;;;15.73;6.15;;;17.70;77.90;;;;;;5097597;28;20035;-68
2022/10/01 05:20:24;;;;;;;20.55;6.00;;;17.70;77.90;;;;;;5097540;28;20554;-67
2022/10/01 05:22:51;;;;;;;11.18;6.35;;;17.70;77.70;;;;;;5097150;28;20028;-68
2022/10/01 05:25:19;;;;;;;9.93;6.03;;;17.70;77.70;;;;;;5097095;28;20030;-67
2022/10/01 05:27:46;;;;;;;8.98;6.57;;;17.70;77.60;;;;;;5100148;28;20035;-68
2022/10/01 05:30:18;;;;;;;12.77;5.13;;;17.60;77.90;;;;;;5100063;28;20054;-68
2022/10/01 05:32:54;;;;;;;9.50;5.45;;;17.60;78.30;;;;;;5104086;28;20408;-68
2022/10/01 05:35:21;;;;;;;24.88;11.25;;;17.60;78.40;;;;;;5099690;28;20068;-68
2022/10/01 05:37:47;;;;;;;23.30;16.33;;;17.60;78.40;;;;;;5101461;28;20035;-68
2022/10/01 05:40:14;;;;;;;43.03;13.65;;;17.70;78.40;;;;;;5101359;28;20058;-67
2022/10/01 05:42:45;;;;;;;63.55;15.35;;;17.60;78.40;;;;;;5102162;28;20011;-67
2022/10/01 05:45:12;;;;;;;89.75;17.63;;;17.70;78.40;;;;;;5099960;28;20383;-66
2022/10/01 05:47:41;;;;;;;56.33;14.80;;;17.70;78.40;;;;;;5101342;28;20023;-65
2022/10/01 05:50:08;;;;;;;20.95;5.90;;;17.70;78.90;;;;;;5103825;28;20409;-66
2022/10/01 05:52:35;;;;;;;42.08;7.22;;;17.80;78.90;;;;;;5094654;28;20489;-67
2022/10/01 05:55:01;;;;;;;18.00;5.57;;;17.80;79.60;;;;;;5103140;28;20064;-67
2022/10/01 05:57:27;;;;;;;15.07;7.75;;;17.80;79.80;;;;;;5100372;28;20031;-67
2022/10/01 05:59:55;;;;;;;14.73;9.18;;;17.80;79.80;;;;;;5104264;28;20020;-69
2022/10/01 06:02:21;;;;;;;21.35;7.85;;;17.80;79.80;;;;;;5102892;28;20034;-68
2022/10/01 06:04:47;;;;;;;14.55;7.00;;;17.90;79.90;;;;;;5099530;28;20016;-67
2022/10/01 06:07:14;;;;;;;18.55;5.88;;;17.90;79.80;;;;;;5101391;28;20073;-68
2022/10/01 06:09:40;;;;;;;8.63;3.72;;;17.90;79.80;;;;;;5102469;28;20046;-69
2022/10/01 06:12:08;;;;;;;12.05;3.67;;;17.90;79.70;;;;;;5103246;28;20020;-68
2022/10/01 06:14:35;;;;;;;9.57;3.15;;;17.90;79.60;;;;;;5100767;28;20031;-66
2022/10/01 06:17:01;;;;;;;6.60;2.95;;;18.00;79.50;;;;;;5099389;28;20005;-67
2022/10/01 06:19:27;;;;;;;10.57;2.25;;;18.00;79.60;;;;;;5100365;28;20107;-67
2022/10/01 06:21:54;;;;;;;6.95;2.15;;;18.00;79.80;;;;;;5100942;28;20492;-67
2022/10/01 06:24:20;;;;;;;7.72;3.00;;;18.10;80.00;;;;;;5102474;28;20055;-68
2022/10/01 06:26:47;;;;;;;9.25;2.25;;;18.10;80.20;;;;;;5100049;28;20128;-67
2022/10/01 06:29:13;;;;;;;6.72;1.50;;;18.10;80.90;;;;;;5100177;28;20035;-67
2022/10/01 06:31:40;;;;;;;11.23;3.50;;;18.20;79.50;;;;;;5100865;28;20020;-68
2022/10/01 06:34:06;;;;;;;11.43;5.43;;;18.20;79.50;;;;;;5097574;28;20020;-67
2022/10/01 06:36:33;;;;;;;21.15;7.65;;;18.20;79.80;;;;;;5101615;28;20081;-67
2022/10/01 06:39:00;;;;;;;9.77;3.90;;;18.20;79.90;;;;;;5098605;28;20007;-67
2022/10/01 06:41:26;;;;;;;13.13;3.40;;;18.30;80.20;;;;;;5099012;28;20389;-67
2022/10/01 06:43:52;;;;;;;16.05;5.10;;;18.30;80.30;;;;;;5098019;28;20486;-67
2022/10/01 06:46:19;;;;;;;13.45;5.20;;;18.40;80.30;;;;;;5096183;28;20032;-67
2022/10/01 06:48:45;;;;;;;15.10;3.53;;;18.40;80.20;;;;;;5099389;28;20008;-67
2022/10/01 06:51:12;;;;;;;8.25;3.08;;;18.40;79.60;;;;;;5100083;28;20748;-67
2022/10/01 06:53:38;;;;;;;16.02;4.25;;;18.40;79.20;;;;;;5102460;28;20020;-68
2022/10/01 06:56:07;;;;;;;38.13;4.43;;;18.40;78.80;;;;;;5100484;28;20040;-68
2022/10/01 06:58:33;;;;;;;9.73;2.67;;;18.50;78.20;;;;;;5104285;28;20015;-67
2022/10/01 07:01:01;;;;;;;14.70;7.90;;;18.50;77.30;;;;;;5108605;28;20569;-68
2022/10/01 07:03:29;;;;;;;14.10;6.88;;;18.60;77.10;;;;;;5108095;28;20764;-67
2022/10/01 07:06:01;;;;;;;10.07;3.95;;;18.50;76.80;;;;;;5103015;27;20490;-66
2022/10/01 07:08:28;;;;;;;13.82;4.32;;;18.60;76.10;;;;;;5107641;28;20031;-67
2022/10/01 07:11:01;;;;;;;9.63;3.70;;;18.60;75.40;;;;;;5102679;28;20043;-67
2022/10/01 07:13:27;;;;;;;10.55;3.08;;;18.60;74.80;;;;;;5108034;28;20023;-67
2022/10/01 07:15:54;;;;;;;10.88;1.85;;;18.70;74.50;;;;;;5104928;28;20398;-67
2022/10/01 07:18:20;;;;;;;6.43;2.03;;;18.70;74.60;;;;;;5106530;28;20024;-67
2022/10/01 07:20:47;;;;;;;12.00;2.47;;;18.80;74.60;;;;;;5107501;28;20089;-68
2022/10/01 07:23:15;;;;;;;7.35;1.48;;;18.80;74.80;;;;;;5100571;28;20081;-67
2022/10/01 07:25:42;;;;;;;8.27;1.50;;;18.90;74.40;;;;;;5108196;28;20024;-67
2022/10/01 07:28:15;;;;;;;3.67;1.42;;;19.00;73.80;;;;;;5106223;28;20506;-67
2022/10/01 07:31:02;;;;;;;4.40;1.50;;;19.00;73.40;;;;;;5106065;27;20039;-66
2022/10/01 07:33:29;;;;;;;2.92;1.40;;;19.10;73.00;;;;;;5104837;28;20036;-66
2022/10/01 07:35:58;;;;;;;5.50;1.25;;;19.10;71.70;;;;;;5104289;28;20057;-66
2022/10/01 07:38:24;;;;;;;3.63;1.35;;;19.20;71.60;;;;;;5102095;28;20030;-66
2022/10/01 07:40:53;;;;;;;8.13;2.28;;;19.20;71.70;;;;;;5107579;28;20032;-67
2022/10/01 07:43:20;;;;;;;4.20;1.40;;;19.20;71.70;;;;;;5104156;28;20099;-66
2022/10/01 07:45:48;;;;;;;6.57;1.83;;;19.30;71.40;;;;;;5106692;28;20512;-66
2022/10/01 07:48:15;;;;;;;4.93;1.45;;;19.30;71.40;;;;;;5105198;28;20044;-67
2022/10/01 07:50:45;;;;;;;7.30;1.70;;;19.40;71.60;;;;;;5106996;28;20051;-67
2022/10/01 07:53:12;;;;;;;3.30;1.23;;;19.40;71.30;;;;;;5103247;28;20045;-67
2022/10/01 07:55:38;;;;;;;4.95;1.30;;;19.50;71.40;;;;;;5106158;28;20012;-68
2022/10/01 07:58:05;;;;;;;4.50;1.90;;;19.50;70.60;;;;;;5101655;28;20023;-67
2022/10/01 08:00:33;;;;;;;9.77;3.13;;;19.50;70.40;;;;;;5107247;27;20027;-66
2022/10/01 08:03:00;;;;;;;5.47;1.73;;;19.60;70.10;;;;;;5100612;28;20358;-68
2022/10/01 08:05:32;;;;;;;6.93;1.73;;;19.60;70.20;;;;;;5106832;28;20020;-66
2022/10/01 08:08:04;;;;;;;6.50;1.70;;;19.60;70.20;;;;;;5106226;28;20481;-67
2022/10/01 10:22:26;;;;;;;5.22;1.40;;;20.90;60.00;;;;;;5042649;28;20513;-67
2022/10/01 10:24:56;;;;;;;7.00;1.58;;;21.30;59.90;;;;;;5046835;28;20033;-67
2022/10/01 10:27:28;;;;;;;8.43;1.52;;;21.30;59.60;;;;;;5046105;28;20025;-65
2022/10/01 10:30:13;;;;;;;7.05;2.03;;;21.40;59.50;;;;;;5046990;28;20048;-66
2022/10/01 10:32:41;;;;;;;8.90;1.88;;;21.50;59.60;;;;;;5042342;28;20056;-65
2022/10/01 10:35:30;;;;;;;4.20;1.60;;;21.60;59.00;;;;;;5046853;28;20025;-67
2022/10/01 10:37:57;;;;;;;4.72;2.00;;;21.70;59.10;;;;;;5041079;28;20033;-65
2022/10/01 10:40:33;;;;;;;6.78;1.83;;;21.80;58.80;;;;;;5051368;28;20032;-68
2022/10/01 10:43:00;;;;;;;7.88;1.23;;;21.80;58.40;;;;;;5050496;28;20051;-66
2022/10/01 10:45:36;;;;;;;5.15;0.95;;;21.90;58.60;;;;;;5045733;28;20499;-65
2022/10/01 10:48:06;;;;;;;3.53;1.45;;;21.90;58.30;;;;;;5042725;28;20029;-65
2022/10/01 10:50:39;;;;;;;4.45;1.20;;;21.90;57.90;;;;;;5046364;28;20040;-68
2022/10/01 10:53:24;;;;;;;8.77;1.67;;;22.00;58.00;;;;;;5041797;28;20021;-66
2022/10/01 10:56:05;;;;;;;9.48;2.25;;;22.00;57.70;;;;;;5034828;28;20053;-65
2022/10/01 10:58:33;;;;;;;9.90;5.35;;;22.00;58.20;;;;;;5040882;28;20025;-66
2022/10/01 11:01:12;;;;;;;17.88;3.17;;;22.10;58.90;;;;;;5042306;28;20111;-66
2022/10/01 11:03:52;;;;;;;10.00;4.30;;;22.20;58.00;;;;;;5041064;28;20025;-65
2022/10/01 11:06:19;;;;;;;8.73;3.97;;;22.20;58.20;;;;;;5045624;28;20549;-67
2022/10/01 11:08:56;;;;;;;13.20;3.60;;;22.30;58.10;;;;;;5039026;28;20116;-66
2022/10/01 11:11:39;;;;;;;7.55;2.70;;;22.40;57.60;;;;;;5042473;28;20045;-67
2022/10/01 11:14:19;;;;;;;9.80;2.47;;;22.40;57.60;;;;;;5043018;28;20033;-67
2022/10/01 11:16:59;;;;;;;4.45;1.77;;;22.40;57.10;;;;;;5036525;28;20060;-69
2022/10/01 11:20:02;;;;;;;4.90;1.17;;;22.50;57.10;;;;;;5040276;28;20010;-66
2022/10/01 11:22:32;;;;;;;4.68;2.63;;;22.50;57.00;;;;;;5033486;28;20040;-67
2022/10/01 11:24:59;;;;;;;12.40;2.50;;;22.50;56.70;;;;;;5025501;28;20500;-69
2022/10/01 11:27:50;;;;;;;8.55;2.20;;;22.50;56.70;;;;;;5022915;28;20582;-67
2022/10/01 11:30:25;;;;;;;9.43;2.22;;;22.50;56.80;;;;;;5026362;28;20388;-67
2022/10/01 11:33:09;;;;;;;;;;;22.60;57.20;;;;;;5023846;28;20115;-69
2022/10/01 11:35:43;;;;;;;4.28;1.23;;;22.70;57.60;;;;;;5031113;28;19908;-68
2022/10/01 11:38:25;;;;;;;6.67;1.40;;;22.70;57.20;;;;;;5021076;28;20029;-69
2022/10/01 11:41:13;;;;;;;7.78;1.58;;;22.80;56.90;;;;;;5028011;28;20084;-68
2022/10/01 11:43:44;;;;;;;8.07;4.22;;;22.80;56.70;;;;;;5026601;28;20397;-67
2022/10/01 11:46:48;;;;;;;11.35;3.50;;;22.90;56.40;;;;;;5028539;28;20554;-68
2022/10/01 11:49:18;;;;;;;12.50;2.50;;;22.90;56.50;;;;;;5024763;28;20064;-67
2022/10/01 11:51:55;;;;;;;7.18;1.65;;;23.00;56.60;;;;;;5024770;28;20052;-69
2022/10/01 11:54:26;;;;;;;2.92;1.52;;;23.10;56.60;;;;;;5032736;28;20029;-67
2022/10/01 11:59:55;;;;;;;6.07;2.40;;;23.20;56.80;;;;;;5026519;28;20100;-67
2022/10/01 12:02:39;;;;;;;9.43;5.10;;;23.20;56.60;;;;;;5029544;28;20037;-67
2022/10/01 12:05:24;;;;;;;27.65;8.65;;;23.30;56.30;;;;;;5026237;28;20018;-65
2022/10/01 12:08:26;;;;;;;13.82;3.45;;;23.30;56.70;;;;;;5028234;28;20033;-68
2022/10/01 12:11:08;;;;;;;5.13;2.47;;;23.40;56.30;;;;;;5023457;28;20763;-66
2022/10/01 12:13:43;;;;;;;7.85;2.83;;;23.50;55.70;;;;;;5022433;28;20408;-70
2022/10/01 12:16:19;;;;;;;5.85;3.28;;;23.50;55.10;;;;;;5023129;28;20026;-66
2022/10/01 12:19:04;;;;;;;7.32;3.05;;;23.50;55.10;;;;;;5025683;28;20075;-66
2022/10/01 12:21:42;;;;;;;5.88;3.35;;;23.50;55.00;;;;;;5026865;28;20045;-66
2022/10/01 12:24:17;;;;;;;7.22;2.67;;;23.50;54.70;;;;;;5031448;28;20025;-67
2022/10/01 12:26:58;;;;;;;;;;;23.50;54.70;;;;;;5027622;28;20527;-69
2022/10/01 12:29:37;;;;;;;4.43;1.80;;;23.60;54.20;;;;;;5030386;28;20478;-67
2022/10/01 12:32:29;;;;;;;5.07;1.33;;;23.60;53.80;;;;;;5028874;28;20026;-66
2022/10/01 12:35:16;;;;;;;6.30;1.73;;;23.60;53.80;;;;;;5025031;28;20041;-71
2022/10/01 12:38:31;;;;;;;8.10;1.88;;;23.60;54.00;;;;;;5021014;28;20108;-70
2022/10/01 12:41:22;;;;;;;7.72;1.60;;;23.60;53.50;;;;;;5020811;28;20524;-69
2022/10/01 12:44:07;;;;;;;5.28;3.65;;;23.60;53.30;;;;;;5021000;28;20064;-66
2022/10/01 12:46:52;;;;;;;10.45;4.82;;;23.60;53.30;;;;;;5023431;28;20032;-67
2022/10/01 12:49:39;;;;;;;5.40;2.70;;;23.60;53.20;;;;;;5024690;28;20047;-67
2022/10/01 12:52:42;;;;;;;6.55;2.03;;;23.60;53.20;;;;;;5020303;28;20025;-70
2022/10/01 12:55:56;;;;;;;9.70;3.67;;;23.60;53.00;;;;;;5019637;28;20081;-66
2022/10/01 12:58:37;;;;;;;14.65;1.90;;;23.50;53.60;;;;;;5023934;28;20068;-67
2022/10/01 13:01:22;;;;;;;7.72;1.33;;;23.50;53.60;;;;;;5022408;28;20030;-67
2022/10/01 13:04:19;;;;;;;5.93;1.30;;;23.50;53.70;;;;;;5023112;28;20123;-70
2022/10/01 13:07:02;;;;;;;13.40;1.85;;;23.50;53.90;;;;;;5023907;28;20025;-67
2022/10/01 13:09:46;;;;;;;5.30;1.40;;;23.50;53.70;;;;;;5027895;28;20075;-69
2022/10/01 13:12:50;;;;;;;6.53;4.15;;;23.60;53.60;;;;;;5023826;28;20033;-67
2022/10/01 13:15:24;;;;;;;4.03;3.25;;;23.60;53.60;;;;;;5019199;28;20370;-67
2022/10/01 13:18:26;;;;;;;7.55;3.58;;;23.60;53.10;;;;;;5019987;28;20060;-68
2022/10/01 13:20:59;;;;;;;8.45;2.70;;;23.60;53.00;;;;;;5021900;28;20140;-70
2022/10/01 13:23:45;;;;;;;3.63;1.70;;;23.60;53.20;;;;;;5027797;28;20037;-68
2022/10/01 13:26:39;;;;;;;5.68;1.80;;;23.60;53.20;;;;;;5025160;28;20377;-67
2022/10/01 13:29:06;;;;;;;15.90;2.35;;;23.60;53.00;;;;;;5017706;28;20388;-69
2022/10/01 13:31:50;;;;;;;6.07;1.73;;;23.60;53.20;;;;;;5024960;28;20040;-68
2022/10/01 13:34:37;;;;;;;7.35;2.53;;;23.60;53.30;;;;;;5024808;28;20029;-66
2022/10/01 13:37:29;;;;;;;4.40;2.45;;;23.60;53.50;;;;;;5024445;28;20057;-67
2022/10/01 13:39:58;;;;;;;9.23;3.70;;;23.60;53.20;;;;;;5024877;28;20021;-65
2022/10/01 13:42:32;;;;;;;10.65;4.80;;;23.60;52.90;;;;;;5024114;28;20526;-67
2022/10/01 13:45:29;;;;;;;8.68;5.15;;;23.60;52.80;;;;;;5026717;28;20465;-66
2022/10/01 13:48:10;;;;;;;7.97;3.05;;;23.60;52.80;;;;;;5021592;28;20034;-68
2022/10/01 13:51:04;;;;;;;7.07;2.85;;;23.60;53.00;;;;;;5026041;28;20036;-67
2022/10/01 13:53:41;;;;;;;6.32;3.75;;;23.70;53.20;;;;;;5029658;28;20508;-67
2022/10/01 13:56:13;;;;;;;6.70;2.15;;;23.60;52.00;;;;;;5023104;28;20079;-67
2022/10/01 13:58:42;;;;;;;23.48;17.67;;;23.60;50.90;;;;;;5029213;28;20500;-67
2022/10/01 14:01:21;;;;;;;25.52;16.70;;;23.50;51.40;;;;;;5025316;28;20034;-68
2022/10/01 14:04:06;;;;;;;10.40;7.05;;;23.50;51.70;;;;;;5025623;28;20009;-71
2022/10/01 14:06:35;;;;;;;13.18;5.70;;;23.40;52.10;;;;;;5027756;28;20022;-70
2022/10/01 14:09:26;;;;;;;7.82;3.83;;;23.30;52.40;;;;;;5026027;28;20108;-72
2022/10/01 14:17:56;;;;;;;12.65;4.05;;;23.30;53.10;;;;;;5020516;28;20527;-69
2022/10/01 14:20:27;;;;;;;11.27;3.70;;;23.20;53.10;;;;;;5063262;28;20392;-70
2022/10/01 14:23:11;;;;;;;15.02;11.50;;;23.20;54.10;;;;;;5022887;28;20025;-66
2022/10/01 14:25:45;;;;;;;14.18;8.60;;;23.20;52.50;;;;;;5025158;28;20057;-69
2022/10/01 14:28:29;;;;;;;32.85;25.65;;;23.10;52.80;;;;;;5022325;28;20038;-68
2022/10/01 14:31:13;;;;;;;46.38;34.20;;;23.10;52.90;;;;;;5023788;28;20046;-68
2022/10/01 14:34:05;;;;;;;28.20;21.02;;;23.10;52.90;;;;;;5020884;28;20018;-70
2022/10/01 14:36:36;;;;;;;18.42;12.38;;;23.00;52.90;;;;;;5028105;28;20091;-68
2022/10/01 14:39:20;;;;;;;8.27;4.70;;;23.00;52.80;;;;;;5025312;28;20030;-68
2022/10/01 14:41:48;;;;;;;9.25;6.25;;;23.00;52.20;;;;;;5023712;28;20083;-67
2022/10/01 14:44:33;;;;;;;7.72;2.90;;;22.90;52.70;;;;;;5025352;28;20115;-68
2022/10/01 14:47:10;;;;;;;4.35;2.95;;;22.90;52.40;;;;;;5022386;28;20541;-68
2022/10/01 14:49:36;;;;;;;6.80;1.70;;;22.90;52.60;;;;;;5021808;28;20124;-68
2022/10/01 14:52:12;;;;;;;12.25;4.10;;;22.90;52.10;;;;;;5024804;28;20026;-66
2022/10/01 14:54:55;;;;;;;6.32;2.25;;;22.90;52.80;;;;;;5025970;28;20527;-67
2022/10/01 14:57:41;;;;;;;17.67;3.70;;;22.90;52.90;;;;;;5024354;28;20476;-67
2022/10/01 15:00:14;;;;;;;6.18;1.90;;;22.70;52.90;;;;;;5024294;28;20092;-67
2022/10/01 15:02:46;;;;;;;8.43;2.78;;;22.60;52.90;;;;;;5028837;28;20033;-68
2022/10/01 15:05:29;;;;;;;10.23;2.65;;;22.40;53.30;;;;;;5025758;28;20029;-67
2022/10/01 15:07:56;;;;;;;9.45;2.60;;;22.30;54.00;;;;;;5033479;28;20071;-70
2022/10/01 15:10:26;;;;;;;5.95;2.17;;;22.20;54.50;;;;;;5025783;28;20047;-71
2022/10/01 15:12:55;;;;;;;3.55;1.80;;;22.10;54.90;;;;;;5028635;28;20029;-70
2022/10/01 15:15:27;;;;;;;9.25;2.95;;;22.10;54.60;;;;;;5024127;28;20029;-67
2022/10/01 15:17:54;;;;;;;6.22;4.07;;;22.00;54.80;;;;;;5024406;28;20025;-67
2022/10/01 15:20:20;;;;;;;13.80;3.00;;;22.00;55.20;;;;;;5028791;28;20045;-70
2022/10/01 15:22:53;;;;;;;10.57;4.72;;;22.00;55.00;;;;;;5027020;28;20075;-68
2022/10/01 15:25:26;;;;;;;7.72;3.70;;;22.00;55.10;;;;;;5026774;28;20030;-68
2022/10/01 15:27:53;;;;;;;4.47;3.33;;;22.10;55.40;;;;;;5027274;28;20068;-71
2022/10/01 15:30:26;;;;;;;8.18;2.65;;;22.10;55.40;;;;;;5031861;28;20041;-68
2022/10/01 15:32:53;;;;;;;5.78;3.28;;;22.10;55.80;;;;;;5025201;28;20116;-68
2022/10/01 15:35:22;;;;;;;11.98;2.38;;;22.10;55.90;;;;;;5026621;28;20556;-68
2022/10/01 15:37:49;;;;;;;8.82;2.40;;;21.90;56.20;;;;;;5032501;28;20596;-67
2022/10/01 15:40:35;;;;;;;6.65;1.77;;;21.90;56.60;;;;;;5026319;28;20045;-69
2022/10/01 15:43:08;;;;;;;15.43;2.20;;;21.90;57.70;;;;;;5030223;28;20033;-70
2022/10/01 15:45:34;;;;;;;10.40;3.03;;;21.90;59.20;;;;;;5030936;28;20025;-70
2022/10/01 15:48:01;;;;;;;6.45;1.95;;;22.00;60.00;;;;;;5030444;28;20475;-71
2022/10/01 15:50:35;;;;;;;8.30;1.88;;;22.10;59.70;;;;;;5024033;28;20067;-73
2022/10/01 15:53:28;;;;;;;7.65;2.30;;;22.10;58.70;;;;;;5027308;28;20017;-68
2022/10/01 15:55:58;;;;;;;7.10;3.50;;;22.10;58.40;;;;;;5026831;28;20388;-70
2022/10/01 15:58:29;;;;;;;9.30;2.58;;;22.10;58.50;;;;;;5026801;28;20030;-71
2022/10/01 16:01:04;;;;;;;5.75;2.78;;;22.10;58.60;;;;;;5024986;28;20033;-69
2022/10/01 18:15:26;;;;;;;6.10;3.10;;;20.50;66.00;;;;;;5112652;27;20401;-71
2022/10/01 18:18:48;;;;;;;5.60;1.88;;;20.70;67.50;;;;;;5101704;28;20051;-74
2022/10/01 18:21:31;;;;;;;5.95;3.28;;;20.70;67.40;;;;;;5097010;28;20060;-72
2022/10/01 18:23:58;;;;;;;7.25;2.00;;;20.70;67.20;;;;;;5111073;28;20031;-72
2022/10/01 18:26:25;;;;;;;4.65;2.00;;;20.70;67.00;;;;;;5107168;28;20081;-72
2022/10/01 18:28:52;;;;;;;7.80;2.60;;;20.70;67.10;;;;;;5102386;28;20038;-70
2022/10/01 18:31:25;;;;;;;6.28;2.33;;;20.80;67.20;;;;;;5102598;28;20490;-72
2022/10/01 18:34:01;;;;;;;5.68;2.13;;;20.80;67.20;;;;;;5104024;28;20020;-70
2022/10/01 18:37:04;;;;;;;8.02;3.17;;;20.80;67.30;;;;;;5106808;28;20356;-70
2022/10/01 18:39:39;;;;;;;6.07;2.17;;;20.80;68.00;;;;;;5113686;27;20103;-70
2022/10/01 18:42:15;;;;;;;5.85;2.58;;;20.70;67.30;;;;;;5113154;28;20478;-70
2022/10/01 18:44:42;;;;;;;4.72;2.70;;;20.80;67.60;;;;;;5115729;28;20513;-71
2022/10/01 18:47:27;;;;;;;7.97;4.38;;;20.70;67.90;;;;;;5115570;27;20145;-70
2022/10/01 18:50:01;;;;;;;13.07;7.00;;;20.70;67.90;;;;;;5108436;28;20024;-70
2022/10/01 18:52:59;;;;;;;9.25;4.85;;;20.70;68.10;;;;;;5103884;28;20540;-72
2022/10/01 18:55:32;;;;;;;9.65;3.50;;;20.60;68.20;;;;;;5106731;27;20032;-72
2022/10/01 18:58:33;;;;;;;8.07;3.58;;;20.70;68.20;;;;;;5103525;28;20023;-72
2022/10/01 19:01:23;;;;;;;6.18;2.20;;;20.60;68.30;;;;;;5021440;28;20134;-72
2022/10/01 19:04:11;;;;;;;8.00;2.42;;;20.60;68.50;;;;;;5094784;28;20131;-70
2022/10/01 19:06:48;;;;;;;6.38;1.80;;;20.60;68.60;;;;;;5111666;28;20039;-72
2022/10/01 19:09:39;;;;;;;10.13;3.13;;;20.60;68.90;;;;;;5110568;27;20059;-71
2022/10/01 19:12:21;;;;;;;10.77;6.28;;;20.60;69.20;;;;;;5107499;28;20391;-69
2022/10/01 19:14:56;;;;;;;13.30;7.57;;;20.60;69.10;;;;;;5104017;28;20666;-70
2022/10/01 19:17:32;;;;;;;15.23;5.00;;;20.50;69.10;;;;;;5093615;28;20360;-70
2022/10/01 19:20:22;;;;;;;8.73;3.80;;;20.50;69.10;;;;;;5100001;28;20016;-68
2022/10/01 19:23:10;;;;;;;6.85;2.45;;;20.50;69.20;;;;;;5094283;28;20042;-69
2022/10/01 19:25:52;;;;;;;7.95;2.67;;;20.50;69.10;;;;;;5095562;28;20483;-68
2022/10/01 19:28:27;;;;;;;11.27;4.47;;;20.50;69.30;;;;;;5095885;28;20067;-69
2022/10/01 19:30:56;;;;;;;11.18;6.88;;;20.50;69.50;;;;;;5092366;28;20028;-69
2022/10/01 19:33:23;;;;;;;12.57;5.82;;;20.50;69.60;;;;;;5100296;28;20071;-71
2022/10/01 19:36:00;;;;;;;18.85;5.45;;;20.50;69.80;;;;;;5093699;28;20368;-70
2022/10/01 19:38:32;;;;;;;14.35;4.05;;;20.50;69.90;;;;;;5091432;28;20036;-71
2022/10/01 19:41:08;;;;;;;5.72;2.55;;;20.50;70.10;;;;;;5091699;28;20016;-70
2022/10/01 19:43:47;;;;;;;12.63;3.58;;;20.50;70.40;;;;;;5095693;28;20378;-72
2022/10/01 19:46:34;;;;;;;17.10;5.45;;;20.40;70.40;;;;;;5097015;28;20084;-70
2022/10/01 19:49:07;;;;;;;11.00;5.65;;;20.40;70.40;;;;;;5095835;28;20016;-70
2022/10/01 19:51:37;;;;;;;12.68;6.30;;;20.40;70.40;;;;;;5092960;28;20379;-71
2022/10/01 19:54:15;;;;;;;13.15;6.45;;;20.40;70.40;;;;;;5093427;28;20043;-70
2022/10/01 19:56:44;;;;;;;4.85;3.13;;;20.40;70.50;;;;;;5097486;28;20457;-72
2022/10/01 19:59:18;;;;;;;6.03;2.85;;;20.40;70.50;;;;;;5096393;28;20455;-71